createdAt,value
2018-09-19T00:01:40.456Z,19.12
2018-09-19T00:04:07.957Z,19.11
2018-09-19T00:06:35.518Z,19.09
2018-09-19T00:09:04.192Z,19.06
2018-09-19T00:11:33.376Z,19.06
2018-09-19T00:14:00.902Z,19.06
2018-09-19T00:16:30.084Z,19.07
2018-09-19T00:18:59.034Z,19.06
2018-09-19T00:21:27.537Z,19.08
2018-09-19T00:23:55.036Z,19.10
2018-09-19T00:26:22.982Z,19.12
2018-09-19T00:28:51.072Z,19.12
2018-09-19T00:31:18.613Z,19.13
2018-09-19T00:33:47.481Z,19.13
2018-09-19T00:36:15.683Z,19.06
2018-09-19T00:38:43.183Z,18.99
2018-09-19T00:41:11.123Z,18.90
2018-09-19T00:43:38.711Z,18.82
2018-09-19T00:46:06.227Z,18.72
2018-09-19T00:48:33.765Z,18.68
2018-09-19T00:51:02.599Z,18.64
2018-09-19T00:53:30.133Z,18.59
2018-09-19T00:56:00.849Z,18.56
2018-09-19T00:58:29.247Z,18.49
2018-09-19T01:00:57.252Z,18.44
2018-09-19T01:03:24.814Z,18.41
2018-09-19T01:05:52.619Z,18.37
2018-09-19T01:08:20.795Z,18.34
2018-09-19T01:10:49.708Z,18.33
2018-09-19T01:13:17.217Z,18.30
2018-09-19T01:15:47.163Z,18.26
2018-09-19T01:18:15.160Z,18.22
2018-09-19T01:20:43.764Z,18.14
2018-09-19T01:23:11.917Z,18.11
2018-09-19T01:25:39.440Z,18.06
2018-09-19T01:28:06.944Z,18.01
2018-09-19T01:30:34.440Z,17.99
2018-09-19T01:33:03.640Z,18.00
2018-09-19T01:35:31.539Z,18.01
2018-09-19T01:37:59.060Z,18.03
2018-09-19T01:40:26.581Z,18.06
2018-09-19T01:42:54.123Z,18.09
2018-09-19T01:45:22.166Z,18.10
2018-09-19T01:47:50.203Z,18.09
2018-09-19T01:50:17.710Z,18.07
2018-09-19T01:52:45.223Z,18.00
2018-09-19T01:55:13.815Z,17.94
2018-09-19T01:57:42.405Z,17.90
2018-09-19T02:00:10.908Z,17.90
2018-09-19T02:02:39.078Z,17.89
2018-09-19T02:05:06.610Z,17.85
2018-09-19T02:07:34.175Z,17.84
2018-09-19T02:10:02.223Z,17.83
2018-09-19T02:12:30.201Z,17.83
2018-09-19T02:14:57.723Z,17.81
2018-09-19T02:17:25.231Z,17.77
2018-09-19T02:19:52.724Z,17.74
2018-09-19T02:22:20.604Z,17.71
2018-09-19T02:24:48.111Z,17.69
2018-09-19T02:27:15.603Z,17.68
2018-09-19T02:29:43.151Z,17.66
2018-09-19T02:32:11.119Z,17.64
2018-09-19T02:34:38.817Z,17.63
2018-09-19T02:37:06.329Z,17.59
2018-09-19T02:39:34.238Z,17.58
2018-09-19T02:42:01.766Z,17.55
2018-09-19T02:44:29.288Z,17.52
2018-09-19T02:46:56.832Z,17.49
2018-09-19T02:49:24.830Z,17.44
2018-09-19T02:51:52.462Z,17.40
2018-09-19T02:54:19.991Z,17.36
2018-09-19T02:56:47.564Z,17.31
2018-09-19T02:59:15.100Z,17.26
2018-09-19T03:01:42.572Z,17.19
2018-09-19T03:04:10.079Z,17.18
2018-09-19T03:06:38.101Z,17.16
2018-09-19T03:09:05.643Z,17.13
2018-09-19T03:11:33.151Z,17.13
2018-09-19T03:14:00.683Z,17.11
2018-09-19T03:16:28.531Z,17.10
2018-09-19T03:18:56.047Z,17.07
2018-09-19T03:21:23.572Z,17.07
2018-09-19T03:23:51.525Z,17.08
2018-09-19T03:26:20.035Z,17.07
2018-09-19T03:28:47.559Z,17.04
2018-09-19T03:31:15.399Z,17.04
2018-09-19T03:33:42.871Z,17.01
2018-09-19T03:36:10.615Z,16.98
2018-09-19T03:38:38.595Z,16.96
2018-09-19T03:41:09.752Z,16.92
2018-09-19T03:43:37.288Z,16.89
2018-09-19T03:46:06.310Z,16.85
2018-09-19T03:48:33.791Z,16.79
2018-09-19T03:51:02.219Z,16.73
2018-09-19T03:53:29.748Z,16.68
2018-09-19T03:55:57.562Z,16.60
2018-09-19T03:58:25.046Z,16.52
2018-09-19T04:00:52.587Z,16.47
2018-09-19T04:03:20.424Z,16.41
2018-09-19T04:05:47.929Z,16.34
2018-09-19T04:08:15.616Z,16.29
2018-09-19T04:10:43.501Z,16.28
2018-09-19T04:13:11.673Z,16.29
2018-09-19T04:15:39.194Z,16.31
2018-09-19T04:18:06.904Z,16.36
2018-09-19T04:20:34.831Z,16.40
2018-09-19T04:23:02.473Z,16.43
2018-09-19T04:25:30.022Z,16.49
2018-09-19T04:27:57.544Z,16.53
2018-09-19T04:30:25.030Z,16.59
2018-09-19T04:32:54.450Z,16.63
2018-09-19T04:35:22.914Z,16.64
2018-09-19T04:37:50.448Z,16.64
2018-09-19T04:40:18.403Z,16.65
2018-09-19T04:42:45.898Z,16.67
2018-09-19T04:45:13.438Z,16.70
2018-09-19T04:47:41.423Z,16.75
2018-09-19T04:50:08.966Z,16.77
2018-09-19T04:52:36.537Z,16.79
2018-09-19T04:55:05.451Z,16.77
2018-09-19T04:57:33.044Z,16.72
2018-09-19T05:00:00.589Z,16.62
2018-09-19T05:02:28.495Z,16.51
2018-09-19T05:04:56.018Z,16.42
2018-09-19T05:07:23.620Z,16.33
2018-09-19T05:09:51.451Z,16.27
2018-09-19T05:12:19.059Z,16.23
2018-09-19T05:14:46.578Z,16.19
2018-09-19T05:17:14.451Z,16.18
2018-09-19T05:19:42.015Z,16.15
2018-09-19T05:22:09.563Z,16.13
2018-09-19T05:24:37.531Z,16.10
2018-09-19T05:27:05.096Z,16.11
2018-09-19T05:29:32.601Z,16.10
2018-09-19T05:32:00.598Z,16.10
2018-09-19T05:34:28.140Z,16.11
2018-09-19T05:36:55.676Z,16.10
2018-09-19T05:39:24.328Z,16.11
2018-09-19T05:41:53.344Z,16.10
2018-09-19T05:44:20.891Z,16.10
2018-09-19T05:46:48.690Z,16.13
2018-09-19T05:49:16.264Z,16.17
2018-09-19T05:51:43.780Z,16.21
2018-09-19T05:54:11.712Z,16.25
2018-09-19T05:56:39.245Z,16.29
2018-09-19T05:59:06.777Z,16.33
2018-09-19T06:01:34.740Z,16.38
2018-09-19T06:04:02.267Z,16.40
2018-09-19T06:06:29.807Z,16.42
2018-09-19T06:08:57.674Z,16.46
2018-09-19T06:11:25.176Z,16.53
2018-09-19T06:13:52.713Z,16.63
2018-09-19T06:16:20.650Z,16.75
2018-09-19T06:18:48.183Z,16.87
2018-09-19T06:21:15.738Z,16.99
2018-09-19T06:23:45.216Z,17.08
2018-09-19T06:26:12.764Z,17.14
2018-09-19T06:28:40.328Z,17.16
2018-09-19T06:31:08.518Z,17.15
2018-09-19T06:33:36.104Z,17.12
2018-09-19T06:36:03.645Z,17.10
2018-09-19T06:38:31.565Z,17.10
2018-09-19T06:40:59.187Z,17.13
2018-09-19T06:43:26.679Z,17.17
2018-09-19T06:45:54.521Z,17.24
2018-09-19T06:48:22.035Z,17.32
2018-09-19T06:50:49.539Z,17.43
2018-09-19T06:53:17.495Z,17.55
2018-09-19T06:55:45.089Z,17.67
2018-09-19T06:58:12.641Z,17.78
2018-09-19T07:00:40.642Z,17.91
2018-09-19T07:03:08.199Z,18.04
2018-09-19T07:05:35.775Z,18.16
2018-09-19T07:08:03.783Z,18.30
2018-09-19T07:10:31.338Z,18.45
2018-09-19T07:12:58.971Z,18.60
2018-09-19T07:15:26.906Z,18.74
2018-09-19T07:17:54.716Z,18.89
2018-09-19T07:20:22.256Z,19.05
2018-09-19T07:22:50.252Z,19.20
2018-09-19T07:25:17.800Z,19.33
2018-09-19T07:27:45.349Z,19.46
2018-09-19T07:30:13.372Z,19.60
2018-09-19T07:32:43.775Z,19.72
2018-09-19T07:35:14.321Z,19.83
2018-09-19T07:37:43.734Z,19.94
2018-09-19T07:40:12.969Z,20.05
2018-09-19T07:42:40.509Z,20.18
2018-09-19T07:45:08.484Z,20.31
2018-09-19T07:47:36.825Z,20.44
2018-09-19T07:50:04.353Z,20.63
2018-09-19T07:52:33.105Z,20.82
2018-09-19T07:55:00.657Z,21.00
2018-09-19T07:57:29.510Z,21.16
2018-09-19T07:59:58.643Z,21.31
2018-09-19T08:02:31.153Z,21.46
2018-09-19T08:04:58.991Z,21.59
2018-09-19T08:07:27.094Z,21.73
2018-09-19T08:09:54.608Z,21.86
2018-09-19T08:12:22.468Z,22.00
2018-09-19T08:14:49.988Z,22.19
2018-09-19T08:17:17.520Z,22.32
2018-09-19T08:19:45.350Z,22.46
2018-09-19T08:22:13.127Z,22.60
2018-09-19T08:24:40.639Z,22.75
2018-09-19T08:27:09.266Z,22.88
2018-09-19T08:29:36.904Z,23.01
2018-09-19T08:32:04.663Z,23.15
2018-09-19T08:34:32.669Z,23.30
2018-09-19T08:37:00.392Z,23.47
2018-09-19T08:39:31.512Z,23.63
2018-09-19T08:41:59.539Z,23.79
2018-09-19T08:44:27.043Z,23.95
2018-09-19T08:46:54.538Z,24.12
2018-09-19T08:49:22.432Z,24.32
2018-09-19T08:51:49.988Z,24.46
2018-09-19T08:54:17.522Z,24.54
2018-09-19T08:56:46.073Z,24.61
2018-09-19T08:59:13.619Z,24.71
2018-09-19T09:01:45.838Z,24.79
2018-09-19T09:04:16.831Z,24.82
2018-09-19T09:06:44.375Z,24.92
2018-09-19T09:09:14.998Z,25.04
2018-09-19T09:11:45.581Z,25.18
2018-09-19T09:14:13.112Z,25.35
2018-09-19T09:16:40.687Z,25.55
2018-09-19T09:19:10.841Z,25.63
2018-09-19T09:21:38.371Z,25.75
2018-09-19T09:24:05.868Z,25.91
2018-09-19T09:26:33.694Z,26.04
2018-09-19T09:29:03.905Z,26.14
2018-09-19T09:31:31.428Z,26.19
2018-09-19T09:33:59.236Z,26.25
2018-09-19T09:36:27.752Z,26.31
2018-09-19T09:38:55.342Z,26.42
2018-09-19T09:41:23.171Z,26.66
2018-09-19T09:43:50.734Z,26.89
2018-09-19T09:46:18.499Z,27.25
2018-09-19T09:48:46.394Z,27.74
2018-09-19T09:51:14.618Z,28.26
2018-09-19T09:53:43.859Z,28.92
2018-09-19T09:56:11.782Z,29.42
2018-09-19T09:58:39.560Z,29.72
2018-09-19T10:01:07.302Z,30.10
2018-09-19T10:03:35.297Z,30.50
2018-09-19T10:06:03.447Z,30.80
2018-09-19T10:08:32.467Z,30.87
2018-09-19T10:11:00.580Z,31.12
2018-09-19T10:13:29.869Z,31.66
2018-09-19T10:15:57.769Z,31.86
2018-09-19T10:18:27.836Z,31.66
2018-09-19T10:20:55.333Z,31.71
2018-09-19T10:23:22.840Z,32.13
2018-09-19T10:25:51.420Z,32.20
2018-09-19T10:28:20.642Z,32.50
2018-09-19T10:30:48.172Z,32.94
2018-09-19T10:33:16.148Z,33.60
2018-09-19T10:35:44.287Z,33.97
2018-09-19T10:38:11.823Z,33.63
2018-09-19T10:40:39.621Z,32.91
2018-09-19T10:43:07.155Z,32.44
2018-09-19T10:45:34.714Z,32.29
2018-09-19T10:48:07.545Z,32.11
2018-09-19T10:50:37.167Z,32.36
2018-09-19T10:53:04.735Z,32.69
2018-09-19T10:55:34.592Z,32.35
2018-09-19T10:58:02.249Z,32.05
2018-09-19T11:00:30.304Z,32.34
2018-09-19T11:02:59.273Z,32.58
2018-09-19T11:05:26.817Z,32.77
2018-09-19T11:07:54.298Z,32.18
2018-09-19T11:10:22.231Z,32.31
2018-09-19T11:12:49.790Z,32.75
2018-09-19T11:15:17.372Z,32.23
2018-09-19T11:17:45.386Z,32.59
2018-09-19T11:20:13.625Z,32.38
2018-09-19T11:22:41.137Z,32.26
2018-09-19T11:25:09.612Z,32.68
2018-09-19T11:27:39.737Z,33.07
2018-09-19T11:30:07.687Z,32.74
2018-09-19T11:32:35.664Z,32.64
2018-09-19T11:35:03.750Z,32.63
2018-09-19T11:37:31.247Z,32.51
2018-09-19T11:39:59.169Z,32.30
2018-09-19T11:42:27.305Z,32.27
2018-09-19T11:44:55.427Z,32.31
2018-09-19T11:47:23.320Z,32.09
2018-09-19T11:49:50.884Z,31.74
2018-09-19T11:52:18.407Z,31.11
2018-09-19T11:54:48.366Z,30.58
2018-09-19T11:57:16.965Z,30.57
2018-09-19T11:59:44.464Z,30.13
2018-09-19T12:02:12.460Z,29.59
2018-09-19T12:04:41.399Z,29.39
2018-09-19T12:07:10.049Z,29.91
2018-09-19T12:09:37.995Z,30.46
2018-09-19T12:12:05.482Z,31.60
2018-09-19T12:14:33.716Z,31.83
2018-09-19T12:17:01.582Z,31.54
2018-09-19T12:19:29.772Z,30.93
2018-09-19T12:21:57.338Z,31.08
2018-09-19T12:24:25.274Z,31.68
2018-09-19T12:26:53.528Z,32.00
2018-09-19T12:29:21.104Z,31.42
2018-09-19T12:31:51.629Z,30.64
2018-09-19T12:34:19.143Z,30.12
2018-09-19T12:36:46.664Z,30.15
2018-09-19T12:39:15.154Z,30.76
2018-09-19T12:41:43.676Z,31.19
2018-09-19T12:44:11.186Z,30.87
2018-09-19T12:46:40.024Z,30.41
2018-09-19T12:49:07.661Z,30.16
2018-09-19T12:51:35.254Z,29.92
2018-09-19T12:54:04.321Z,29.67
2018-09-19T12:56:31.907Z,29.64
2018-09-19T12:59:00.571Z,29.73
2018-09-19T13:01:29.558Z,29.91
2018-09-19T13:03:58.317Z,29.88
2018-09-19T13:06:26.319Z,29.80
2018-09-19T13:08:54.619Z,29.61
2018-09-19T13:11:22.926Z,29.50
2018-09-19T13:13:51.714Z,29.40
2018-09-19T13:16:19.209Z,29.31
2018-09-19T13:18:46.740Z,29.37
2018-09-19T13:21:15.459Z,29.52
2018-09-19T13:23:42.947Z,29.62
2018-09-19T13:26:10.434Z,29.70
2018-09-19T13:28:38.606Z,29.63
2018-09-19T13:31:06.306Z,29.68
2018-09-19T13:33:33.833Z,29.73
2018-09-19T13:36:01.712Z,29.76
2018-09-19T13:38:30.254Z,29.75
2018-09-19T13:40:57.773Z,29.72
2018-09-19T13:43:27.451Z,29.70
2018-09-19T13:45:55.028Z,29.72
2018-09-19T13:48:23.155Z,29.72
2018-09-19T13:50:51.269Z,29.73
2018-09-19T13:53:22.408Z,29.69
2018-09-19T13:55:51.905Z,29.66
2018-09-19T13:58:19.791Z,29.72
2018-09-19T14:00:47.858Z,29.79
2018-09-19T14:03:15.488Z,29.92
2018-09-19T14:05:44.144Z,30.07
2018-09-19T14:08:12.324Z,30.17
2018-09-19T14:10:41.322Z,30.20
2018-09-19T14:13:10.688Z,30.11
2018-09-19T14:15:39.923Z,29.97
2018-09-19T14:18:07.511Z,29.79
2018-09-19T14:20:36.192Z,29.63
2018-09-19T14:23:04.644Z,29.64
2018-09-19T14:25:33.267Z,29.63
2018-09-19T14:28:01.242Z,29.65
2018-09-19T14:30:28.802Z,29.57
2018-09-19T14:32:56.609Z,29.39
2018-09-19T14:35:24.596Z,29.39
2018-09-19T14:37:52.127Z,29.49
2018-09-19T14:40:21.891Z,29.61
2018-09-19T14:42:52.258Z,29.68
2018-09-19T14:45:19.821Z,29.68
2018-09-19T14:47:47.466Z,29.66
2018-09-19T14:50:16.166Z,29.65
2018-09-19T14:52:43.976Z,29.71
2018-09-19T14:55:11.756Z,29.68
2018-09-19T14:57:39.642Z,29.66
2018-09-19T15:00:09.980Z,29.65
2018-09-19T15:02:37.569Z,29.61
2018-09-19T15:05:06.099Z,29.64
2018-09-19T15:07:33.784Z,29.66
2018-09-19T15:10:02.372Z,29.69
2018-09-19T15:12:31.932Z,29.89
2018-09-19T15:14:59.469Z,30.05
2018-09-19T15:17:27.012Z,30.06
2018-09-19T15:19:55.508Z,30.07
2018-09-19T15:22:23.746Z,30.21
2018-09-19T15:24:51.330Z,30.18
2018-09-19T15:27:19.179Z,29.98
2018-09-19T15:29:47.689Z,29.74
2018-09-19T15:32:19.574Z,29.41
2018-09-19T15:34:48.537Z,29.24
2018-09-19T15:37:16.730Z,29.33
2018-09-19T15:39:45.047Z,29.63
2018-09-19T15:42:12.924Z,29.93
2018-09-19T15:44:40.471Z,30.18
2018-09-19T15:47:09.946Z,30.41
2018-09-19T15:49:38.048Z,30.62
2018-09-19T15:52:05.567Z,30.65
2018-09-19T15:54:33.121Z,30.35
2018-09-19T15:57:01.187Z,29.96
2018-09-19T15:59:28.671Z,29.63
2018-09-19T16:01:58.991Z,29.35
2018-09-19T16:04:27.651Z,29.11
2018-09-19T16:06:55.949Z,28.93
2018-09-19T16:09:23.541Z,28.78
2018-09-19T16:11:53.202Z,28.66
2018-09-19T16:14:20.695Z,28.54
2018-09-19T16:16:48.430Z,28.45
2018-09-19T16:19:17.358Z,28.34
2018-09-19T16:21:46.017Z,28.25
2018-09-19T16:24:14.280Z,28.18
2018-09-19T16:26:43.943Z,28.11
2018-09-19T16:29:11.711Z,28.05
2018-09-19T16:31:39.290Z,28.00
2018-09-19T16:34:10.083Z,27.96
2018-09-19T16:36:37.598Z,27.91
2018-09-19T16:39:05.919Z,27.89
2018-09-19T16:41:33.887Z,27.84
2018-09-19T16:44:02.141Z,27.79
2018-09-19T16:46:29.630Z,27.73
2018-09-19T16:48:57.477Z,27.69
2018-09-19T16:51:26.314Z,27.62
2018-09-19T16:53:54.686Z,27.57
2018-09-19T16:56:24.128Z,27.48
2018-09-19T16:58:52.406Z,27.42
2018-09-19T17:01:19.946Z,27.35
2018-09-19T17:03:49.612Z,27.27
2018-09-19T17:06:17.185Z,27.20
2018-09-19T17:08:52.428Z,27.12
2018-09-19T17:11:21.611Z,27.02
2018-09-19T17:13:49.437Z,26.93
2018-09-19T17:16:19.656Z,26.80
2018-09-19T17:18:48.059Z,26.69
2018-09-19T17:21:16.241Z,26.61
2018-09-19T17:23:43.743Z,26.52
2018-09-19T17:26:11.662Z,26.41
2018-09-19T17:31:02.541Z,26.26
2018-09-19T17:33:30.905Z,26.23
2018-09-19T17:35:58.471Z,26.18
2018-09-19T17:38:26.634Z,26.09
2018-09-19T17:40:54.538Z,26.01
2018-09-19T17:43:22.514Z,25.89
2018-09-19T17:45:50.037Z,25.78
2018-09-19T17:48:17.906Z,25.68
2018-09-19T17:50:45.418Z,25.59
2018-09-19T17:53:13.647Z,25.52
2018-09-19T17:55:42.178Z,25.45
2018-09-19T17:58:09.666Z,25.35
2018-09-19T18:00:41.447Z,25.30
2018-09-19T18:03:09.442Z,25.25
2018-09-19T18:05:37.863Z,25.19
2018-09-19T18:08:05.511Z,25.15
2018-09-19T18:10:33.464Z,25.07
2018-09-19T18:13:00.976Z,25.03
2018-09-19T18:15:28.483Z,25.05
2018-09-19T18:17:56.524Z,25.03
2018-09-19T18:20:24.867Z,24.97
2018-09-19T18:22:52.372Z,24.93
2018-09-19T18:25:21.307Z,24.90
2018-09-19T18:27:48.846Z,24.84
2018-09-19T18:30:16.355Z,24.78
2018-09-19T18:32:44.265Z,24.71
2018-09-19T18:35:11.771Z,24.64
2018-09-19T18:37:39.264Z,24.56
2018-09-19T18:40:08.503Z,24.48
2018-09-19T18:42:37.320Z,24.41
2018-09-19T18:45:05.812Z,24.34
2018-09-19T18:47:33.807Z,24.26
2018-09-19T18:50:01.336Z,24.18
2018-09-19T18:52:29.454Z,24.13
2018-09-19T18:54:57.429Z,24.07
2018-09-19T18:57:24.931Z,24.03
2018-09-19T18:59:53.485Z,23.97
2018-09-19T19:02:21.481Z,23.91
2018-09-19T19:04:50.088Z,23.86
2018-09-19T19:07:17.604Z,23.79
2018-09-19T19:09:46.489Z,23.72
2018-09-19T19:12:16.602Z,23.64
2018-09-19T19:14:46.613Z,23.56
2018-09-19T19:17:19.490Z,23.51
2018-09-19T19:19:46.987Z,23.48
2018-09-19T19:22:14.561Z,23.42
2018-09-19T19:24:42.558Z,23.38
2018-09-19T19:27:11.586Z,23.36
2018-09-19T19:29:40.382Z,23.33
2018-09-19T19:32:08.189Z,23.28
2018-09-19T19:34:35.686Z,23.22
2018-09-19T19:37:03.678Z,23.17
2018-09-19T19:39:32.671Z,23.11
2018-09-19T19:42:01.101Z,23.04
2018-09-19T19:44:28.609Z,22.98
2018-09-19T19:46:56.563Z,22.90
2018-09-19T19:49:25.456Z,22.86
2018-09-19T19:51:53.815Z,22.80
2018-09-19T19:54:21.647Z,22.76
2018-09-19T19:56:49.156Z,22.71
2018-09-19T19:59:17.632Z,22.67
2018-09-19T20:01:46.039Z,22.66
2018-09-19T20:04:14.096Z,22.61
2018-09-19T20:06:42.114Z,22.57
2018-09-19T20:09:10.364Z,22.51
2018-09-19T20:11:38.214Z,22.50
2018-09-19T20:14:06.541Z,22.47
2018-09-19T20:16:37.465Z,22.44
2018-09-19T20:19:04.910Z,22.45
2018-09-19T20:21:32.649Z,22.42
2018-09-19T20:24:00.541Z,22.38
2018-09-19T20:26:27.984Z,22.35
2018-09-19T20:28:57.169Z,22.31
2018-09-19T20:31:25.045Z,22.26
2018-09-19T20:33:52.446Z,22.23
2018-09-19T20:36:21.460Z,22.20
2018-09-19T20:38:49.250Z,22.16
2018-09-19T20:41:16.750Z,22.12
2018-09-19T20:43:44.315Z,22.08
2018-09-19T20:46:12.230Z,22.04
2018-09-19T20:48:39.679Z,22.00
2018-09-19T20:51:07.817Z,21.96
2018-09-19T20:53:35.671Z,21.91
2018-09-19T20:56:04.230Z,21.85
2018-09-19T20:58:32.362Z,21.80
2018-09-19T21:01:01.095Z,21.72
2018-09-19T21:03:28.556Z,21.65
2018-09-19T21:05:56.552Z,21.53
2018-09-19T21:08:23.986Z,21.45
2018-09-19T21:10:51.511Z,21.32
2018-09-19T21:13:19.479Z,21.21
2018-09-19T21:15:48.226Z,21.11
2018-09-19T21:18:15.744Z,21.01
2018-09-19T21:20:43.590Z,20.92
2018-09-19T21:23:11.527Z,20.81
2018-09-19T21:25:40.162Z,20.74
2018-09-19T21:28:09.441Z,20.66
2018-09-19T21:30:37.913Z,20.59
2018-09-19T21:33:05.379Z,20.52
2018-09-19T21:35:33.246Z,20.44
2018-09-19T21:38:01.465Z,20.38
2018-09-19T21:40:29.731Z,20.32
2018-09-19T21:43:01.410Z,20.25
2018-09-19T21:45:29.838Z,20.20
2018-09-19T21:47:57.294Z,20.15
2018-09-19T21:50:25.150Z,20.08
2018-09-19T21:52:52.638Z,20.03
2018-09-19T21:55:20.168Z,19.99
2018-09-19T21:57:47.999Z,19.97
2018-09-19T22:00:15.579Z,19.94
2018-09-19T22:02:43.863Z,19.91
2018-09-19T22:05:11.883Z,19.88
2018-09-19T22:07:39.448Z,19.84
2018-09-19T22:12:41.122Z,19.76
2018-09-19T22:15:09.235Z,19.74
2018-09-19T22:17:37.417Z,19.72
2018-09-19T22:20:06.217Z,19.70
2018-09-19T22:22:36.959Z,19.69
2018-09-19T22:25:05.588Z,19.69
2018-09-19T22:27:33.508Z,19.70
2018-09-19T22:30:01.003Z,19.72
2018-09-19T22:32:28.573Z,19.75
2018-09-19T22:34:57.233Z,19.77
2018-09-19T22:37:25.730Z,19.76
2018-09-19T22:39:53.289Z,19.76
2018-09-19T22:42:21.308Z,19.74
2018-09-19T22:44:50.004Z,19.73
2018-09-19T22:47:18.061Z,19.73
2018-09-19T22:49:47.562Z,19.73
2018-09-19T22:52:16.698Z,19.73
2018-09-19T22:54:44.507Z,19.74
2018-09-19T22:57:12.376Z,19.74
2018-09-19T22:59:39.950Z,19.74
2018-09-19T23:02:07.455Z,19.72
2018-09-19T23:04:35.484Z,19.70
2018-09-19T23:07:03.026Z,19.68
2018-09-19T23:09:30.515Z,19.66
2018-09-19T23:11:58.304Z,19.64
2018-09-19T23:14:26.672Z,19.59
2018-09-19T23:16:54.215Z,19.53
2018-09-19T23:19:22.142Z,19.46
2018-09-19T23:21:49.664Z,19.40
2018-09-19T23:24:17.158Z,19.36
2018-09-19T23:26:45.128Z,19.32
2018-09-19T23:29:12.643Z,19.30
2018-09-19T23:31:40.158Z,19.28
2018-09-19T23:34:07.699Z,19.27
2018-09-19T23:36:35.599Z,19.27
2018-09-19T23:39:03.241Z,19.28
2018-09-19T23:41:30.752Z,19.27
2018-09-19T23:43:58.656Z,19.25
2018-09-19T23:46:26.224Z,19.22
2018-09-19T23:48:53.715Z,19.18
2018-09-19T23:51:22.164Z,19.13
2018-09-19T23:53:49.685Z,19.09
2018-09-19T23:56:18.619Z,19.05
2018-09-19T23:58:46.595Z,18.98
